Apalachicola, FL

5:54 PM EDT on September 18, 2014 (GMT -0400)
Northwest Florida Beaches International | Change Station
CLOSE
Current Station
Airport
Location: Panama City,
Elevation: 69 ft
Nearby Weather Stations

Elev 69 ft 30.36 °N, 85.80 °W | Updated 1 hour ago

Clear
Clear
84 °F
Feels Like 88 °F
N
8
Wind Variable Wind from South

Today
High -- | Low -- °F
--% Chance of Precip.
Yesterday
High -- | Low -- °F
Precip. -- in
7:26 AM 7:41 PM
Waning Crescent, 24% visible
Pressure 29.91 in
Visibility 10.0 miles
Clouds Scattered Clouds 6000 ft
Heat Index 88 °F
Dew Point 70 °F
Humidity 63%
Rainfall 0.02 in
Snow Depth Not available.
UV 4 out of 12
Pollen 8.80 out of 12
Air Quality Not available.
Flu Activity Not available.
METAR KECP 182053Z 19007KT 10SM SCT060 29/21 A2988 RMK AO2 SLP129 OCNL LTGCG W TS W MOV LTL 60001 T02890211 56012 $

More Conditions Fewer Conditions

Pressure 29.91 in
Visibility 10.0 miles
Clouds Scattered Clouds 6000 ft
Heat Index 88 °F
Dew Point 70 °F
Humidity 63%
Rainfall 0.02 in
Snow Depth Not available.
UV 4 out of 12
Pollen 8.80 out of 12
Air Quality Not available.
Flu Activity Not available.
METAR KECP 182053Z 19007KT 10SM SCT060 29/21 A2988 RMK AO2 SLP129 OCNL LTGCG W TS W MOV LTL 60001 T02890211 56012 $

More Conditions Fewer Conditions

10-Day Weather Forecast

Almanac

Astronomy

Sep. 18, 2014 Rise Set
Actual Time 7:26 AM EDT 7:41 PM EDT
Civil Twilight 7:02 AM EDT 8:05 PM EDT
Nautical Twilight 6:34 AM EDT 8:33 PM EDT
Astronomical Twilight 6:06 AM EDT 9:01 PM EDT
Moon 2:34 AM EDT 4:16 PM EDT
Length of Visible Light 13h 02m
Length of Day
12h 15m
Tomorrow will be 1m 46s shorter.
Waning Crescent, 24% of the Moon is Illuminated
Today
Waning Crescent
Sep 24
New
Oct 1
First Quarter
Oct 8
Full
Oct 15
Last Quarter

Today's Extremes

State Highs State Lows

Community

WunderPhotos

Upload Photos

1,754,452 photos uploaded!

WunderBlogs® & News

Nearby

Snow Depth

Station Depth Elevation
No new snow has been reported.

Earthquake Activity

City Distance Mag. Time & Date
No recent earthquake activity has been reported nearby.
Minimum magnitude displayed is 2.5.

Coastal Water Temperatures

Place Temperature
Panama City, FL 88.0 °F
Panama City Beach, FL 87.1 °F
Apalachicola, FL 84.9 °F

Nearby Weather Stations